Time;durP1;ratioP1;P1;durP2;ratioP2;P2;SDS_P1;SDS_P2;PMS_P1;PMS_P2;Temp;Humidity;BMP_temperature;BMP_pressure;BME280_temperature;BME280_humidity;BME280_pressure;Samples;Min_cycle;Max_cycle;Signal;HPM_P1;HPM_P2
2023/10/24 03:00:36;;;;;;;2.73;1.20;;;25.00;38.00;;;;;;5838832;23;45987;-80
2023/10/24 03:03:02;;;;;;;1.35;1.10;;;25.00;38.10;;;;;;4937493;28;45460;-80
2023/10/24 03:05:28;;;;;;;2.27;1.43;;;24.90;38.00;;;;;;4962903;28;45398;-80
2023/10/24 03:07:54;;;;;;;2.40;1.43;;;25.00;38.10;;;;;;4939177;28;46201;-81
2023/10/24 03:10:20;;;;;;;2.03;1.27;;;25.00;38.10;;;;;;4970878;28;45459;-80
2023/10/24 03:12:46;;;;;;;1.20;1.10;;;25.00;38.10;;;;;;4937043;28;45793;-80
2023/10/24 03:15:15;;;;;;;1.55;1.27;;;25.00;38.10;;;;;;4930838;28;45552;-80
2023/10/24 03:17:40;;;;;;;1.63;1.20;;;24.90;38.10;;;;;;4939522;28;45988;-80
2023/10/24 03:20:08;;;;;;;1.70;1.30;;;25.00;38.10;;;;;;4981273;28;45679;-79
2023/10/24 03:22:34;;;;;;;2.03;1.50;;;24.90;38.10;;;;;;4955433;28;45471;-80
2023/10/24 03:24:59;;;;;;;1.55;1.20;;;24.90;38.10;;;;;;4973613;28;45395;-80
2023/10/24 03:27:25;;;;;;;2.03;1.30;;;25.00;38.20;;;;;;4954260;28;46158;-80
2023/10/24 03:29:50;;;;;;;1.97;1.30;;;24.90;38.10;;;;;;4966877;28;45151;-81
2023/10/24 03:32:18;;;;;;;2.03;1.33;;;24.90;38.10;;;;;;4929441;28;45613;-80
2023/10/24 03:34:43;;;;;;;1.67;1.20;;;24.90;38.10;;;;;;4927270;28;45430;-80
2023/10/24 03:37:09;;;;;;;1.60;1.10;;;24.90;38.10;;;;;;4909953;28;46401;-81
2023/10/24 03:39:35;;;;;;;2.13;1.40;;;24.90;38.20;;;;;;4969314;28;45345;-80
2023/10/24 03:42:00;;;;;;;1.92;1.30;;;24.90;38.20;;;;;;4929946;28;45042;-80
2023/10/24 03:44:27;;;;;;;1.70;1.40;;;24.90;38.20;;;;;;4969844;28;45304;-80
2023/10/24 03:46:53;;;;;;;1.80;1.38;;;24.90;38.10;;;;;;4958229;28;45421;-80
2023/10/24 03:49:18;;;;;;;1.85;1.10;;;24.90;38.20;;;;;;4926089;28;45655;-79
2023/10/24 03:51:46;;;;;;;1.80;1.17;;;24.90;38.20;;;;;;4970522;28;45163;-80
2023/10/24 03:54:12;;;;;;;1.85;1.30;;;24.90;38.20;;;;;;4949332;28;45499;-81
2023/10/24 03:56:38;;;;;;;1.85;1.50;;;24.90;38.20;;;;;;4931403;28;47110;-80
2023/10/24 03:59:06;;;;;;;1.85;1.30;;;24.90;38.20;;;;;;4956470;28;45245;-81
2023/10/24 04:01:34;;;;;;;1.67;1.35;;;24.90;38.20;;;;;;4971238;28;45629;-80
2023/10/24 04:04:01;;;;;;;1.88;1.30;;;24.80;38.20;;;;;;4964022;28;45387;-80
2023/10/24 04:06:27;;;;;;;1.52;1.05;;;24.90;38.20;;;;;;4952767;28;47292;-80
2023/10/24 04:08:53;;;;;;;1.40;1.10;;;24.80;38.20;;;;;;4941997;28;45502;-80
2023/10/24 04:11:18;;;;;;;1.85;1.25;;;24.80;38.20;;;;;;4968641;28;45071;-81
2023/10/24 04:13:48;;;;;;;1.77;1.38;;;24.80;38.20;;;;;;4934996;28;45932;-81
2023/10/24 04:16:14;;;;;;;2.03;1.13;;;24.90;38.30;;;;;;4913558;28;46663;-80
2023/10/24 04:18:40;;;;;;;2.30;1.27;;;24.90;38.30;;;;;;4964988;28;45592;-80
2023/10/24 04:21:05;;;;;;;1.48;1.20;;;24.80;38.20;;;;;;4950196;28;45481;-80
2023/10/24 04:23:31;;;;;;;1.90;1.40;;;24.80;38.20;;;;;;4943843;28;45354;-79
2023/10/24 04:25:58;;;;;;;2.00;1.20;;;24.80;38.20;;;;;;4961015;28;46209;-80
2023/10/24 04:28:23;;;;;;;1.45;1.25;;;24.80;38.30;;;;;;4949974;28;45774;-79
2023/10/24 04:30:52;;;;;;;2.00;1.50;;;24.80;38.30;;;;;;4942658;28;45586;-81
2023/10/24 04:33:21;;;;;;;1.75;1.27;;;24.80;38.30;;;;;;4954002;28;45706;-80
2023/10/24 04:35:51;;;;;;;1.50;1.17;;;24.80;38.30;;;;;;4963831;28;45408;-80
2023/10/24 04:38:22;;;;;;;1.80;1.20;;;24.80;38.30;;;;;;4940333;28;45676;-81
2023/10/24 04:40:51;;;;;;;2.03;1.30;;;24.80;38.30;;;;;;4983182;28;45642;-81
2023/10/24 04:43:16;;;;;;;1.58;1.20;;;24.90;38.40;;;;;;4943217;28;45300;-80
2023/10/24 04:45:42;;;;;;;2.00;1.35;;;24.80;38.30;;;;;;4948227;28;47030;-81
2023/10/24 04:48:08;;;;;;;2.38;1.38;;;24.80;38.30;;;;;;4950884;28;45268;-81
2023/10/24 04:50:38;;;;;;;1.73;1.20;;;24.80;38.30;;;;;;4942683;28;45558;-81
2023/10/24 04:53:05;;;;;;;1.48;1.30;;;24.80;38.30;;;;;;4964708;28;45101;-81
2023/10/24 04:55:31;;;;;;;2.00;1.35;;;24.80;38.40;;;;;;4948190;28;46466;-81
2023/10/24 04:57:56;;;;;;;2.10;1.30;;;24.80;39.00;;;;;;4936680;28;45046;-81
2023/10/24 05:00:22;;;;;;;1.75;1.25;;;24.80;38.40;;;;;;4961435;28;45392;-81
2023/10/24 05:02:48;;;;;;;2.00;1.30;;;24.80;38.40;;;;;;4954606;28;45217;-80
2023/10/24 05:05:14;;;;;;;1.60;1.20;;;24.80;38.40;;;;;;4966782;28;45324;-81
2023/10/24 05:07:40;;;;;;;1.95;1.25;;;24.80;38.40;;;;;;4970951;28;45097;-81
2023/10/24 05:10:06;;;;;;;1.27;1.13;;;24.80;38.40;;;;;;4952255;28;45319;-81
2023/10/24 05:12:32;;;;;;;1.45;1.30;;;24.80;38.40;;;;;;4916388;28;45060;-80
2023/10/24 05:14:58;;;;;;;1.73;1.40;;;24.80;38.40;;;;;;4951918;28;45397;-81
2023/10/24 05:17:24;;;;;;;1.80;1.40;;;24.80;38.40;;;;;;4958597;28;45537;-81
2023/10/24 05:19:50;;;;;;;1.77;1.40;;;24.80;38.40;;;;;;4972307;28;45496;-82
2023/10/24 05:22:15;;;;;;;1.75;1.20;;;24.80;38.40;;;;;;4953695;28;45773;-81
2023/10/24 05:24:41;;;;;;;2.17;1.30;;;24.80;38.40;;;;;;4953394;28;45977;-81
2023/10/24 05:27:06;;;;;;;1.70;1.20;;;24.80;38.50;;;;;;4947135;28;46733;-81
2023/10/24 05:29:33;;;;;;;1.50;1.10;;;24.80;38.50;;;;;;4953878;28;45536;-82
2023/10/24 05:31:58;;;;;;;2.50;1.40;;;24.70;38.50;;;;;;4909666;28;46564;-81
2023/10/24 05:34:29;;;;;;;1.77;1.10;;;24.80;38.50;;;;;;4938718;28;45556;-84
2023/10/24 05:36:55;;;;;;;1.60;1.30;;;24.80;38.60;;;;;;4943554;28;45650;-81
2023/10/24 05:39:21;;;;;;;1.60;1.20;;;24.70;38.50;;;;;;4915750;28;45506;-80
2023/10/24 05:41:47;;;;;;;1.45;1.13;;;24.70;38.50;;;;;;4954307;28;45568;-81
2023/10/24 05:44:14;;;;;;;1.75;1.25;;;24.70;38.50;;;;;;4939299;28;47259;-81
2023/10/24 05:46:40;;;;;;;2.33;1.20;;;24.70;38.50;;;;;;4956830;28;45250;-81
2023/10/24 05:49:06;;;;;;;1.33;1.10;;;24.70;38.60;;;;;;4943103;28;45449;-80
2023/10/24 05:51:32;;;;;;;2.45;1.30;;;24.70;38.60;;;;;;4934085;28;45408;-81
2023/10/24 05:53:58;;;;;;;2.10;1.30;;;24.70;38.60;;;;;;4929635;28;46445;-81
2023/10/24 05:56:23;;;;;;;2.05;1.33;;;24.70;38.60;;;;;;4964118;28;45262;-80
2023/10/24 05:58:49;;;;;;;1.58;1.33;;;24.70;38.60;;;;;;4939587;28;45763;-81
2023/10/24 06:01:15;;;;;;;1.40;1.27;;;24.70;38.50;;;;;;4927934;28;45618;-80
2023/10/24 06:03:40;;;;;;;2.13;1.40;;;24.70;38.60;;;;;;4976016;28;46583;-81
2023/10/24 06:06:07;;;;;;;1.63;1.30;;;24.70;38.60;;;;;;4964024;28;45092;-81
2023/10/24 06:08:33;;;;;;;1.73;1.20;;;24.70;38.60;;;;;;4940888;28;45255;-82
2023/10/24 06:11:02;;;;;;;1.67;1.30;;;24.70;38.60;;;;;;4948422;28;59853;-80
2023/10/24 06:13:27;;;;;;;2.00;1.30;;;24.70;38.70;;;;;;4971000;28;47285;-81
2023/10/24 06:15:53;;;;;;;2.00;1.50;;;24.70;38.60;;;;;;4942813;28;46059;-81
2023/10/24 06:18:19;;;;;;;1.63;1.30;;;24.70;38.60;;;;;;4971093;28;45457;-81
2023/10/24 06:20:46;;;;;;;2.00;1.25;;;24.60;38.60;;;;;;4957091;28;45558;-81
2023/10/24 06:23:12;;;;;;;1.98;1.33;;;24.70;38.70;;;;;;4961720;28;46200;-81
2023/10/24 06:25:39;;;;;;;2.05;1.20;;;24.70;38.70;;;;;;4936020;28;45591;-80
2023/10/24 06:28:05;;;;;;;2.17;1.20;;;24.70;38.70;;;;;;4971463;28;45998;-80
2023/10/24 06:30:31;;;;;;;1.47;1.27;;;24.70;38.70;;;;;;4918122;28;45296;-81
2023/10/24 06:32:57;;;;;;;1.65;1.15;;;24.70;38.70;;;;;;4952350;28;46427;-81
2023/10/24 06:35:22;;;;;;;1.60;1.30;;;24.60;38.60;;;;;;4938674;28;45375;-80
2023/10/24 06:37:48;;;;;;;1.60;1.20;;;24.60;38.60;;;;;;4957633;28;44955;-81
2023/10/24 06:40:14;;;;;;;1.70;1.30;;;24.70;38.70;;;;;;4948261;28;45466;-80
2023/10/24 06:42:40;;;;;;;2.50;1.40;;;24.70;38.70;;;;;;4949600;28;46128;-81
2023/10/24 06:45:07;;;;;;;2.42;1.25;;;24.60;38.70;;;;;;4965804;28;45450;-80
2023/10/24 06:47:34;;;;;;;2.03;1.30;;;24.70;38.70;;;;;;4937342;28;45536;-80
2023/10/24 06:50:00;;;;;;;2.00;1.20;;;24.60;38.70;;;;;;4984945;28;45694;-83
2023/10/24 06:52:26;;;;;;;2.20;1.50;;;24.60;38.70;;;;;;4938839;28;46404;-80
2023/10/24 06:54:52;;;;;;;1.80;1.45;;;24.60;38.70;;;;;;4956966;28;45014;-81
2023/10/24 06:57:18;;;;;;;2.10;1.30;;;24.60;38.70;;;;;;4936933;28;45391;-80
2023/10/24 06:59:45;;;;;;;2.03;1.30;;;24.60;38.70;;;;;;4943575;28;46253;-82
2023/10/24 07:02:10;;;;;;;2.17;1.40;;;24.70;38.80;;;;;;4961260;28;45655;-81
2023/10/24 07:04:36;;;;;;;2.22;1.40;;;24.60;38.70;;;;;;4921206;28;45250;-80
2023/10/24 07:07:03;;;;;;;2.80;1.40;;;24.60;38.70;;;;;;4948236;28;45495;-80
2023/10/24 07:09:29;;;;;;;2.47;1.25;;;24.60;38.80;;;;;;4926863;28;45433;-81
2023/10/24 07:11:55;;;;;;;1.83;1.30;;;24.60;38.80;;;;;;4936590;28;46729;-81
2023/10/24 07:14:21;;;;;;;2.80;1.30;;;24.60;38.80;;;;;;4955062;28;45353;-81
2023/10/24 07:16:46;;;;;;;1.80;1.30;;;24.60;38.80;;;;;;4928452;28;45400;-81
2023/10/24 07:19:13;;;;;;;2.20;1.27;;;24.70;38.80;;;;;;4932656;28;45275;-81
2023/10/24 07:21:39;;;;;;;1.97;1.20;;;24.60;38.80;;;;;;4951651;28;46567;-81
2023/10/24 07:24:07;;;;;;;2.40;1.38;;;24.60;38.80;;;;;;4938155;28;45274;-80
2023/10/24 07:26:34;;;;;;;1.83;1.20;;;24.60;39.40;;;;;;4967750;28;45039;-81
2023/10/24 07:29:00;;;;;;;1.83;1.30;;;24.60;38.80;;;;;;4941068;28;44990;-81
2023/10/24 07:31:26;;;;;;;2.10;1.47;;;24.60;38.80;;;;;;4930261;28;45881;-80
2023/10/24 07:33:52;;;;;;;1.88;1.35;;;24.60;38.80;;;;;;4946697;28;44990;-81
2023/10/24 07:36:18;;;;;;;1.70;1.27;;;24.60;38.80;;;;;;4931378;28;45528;-81
2023/10/24 07:38:44;;;;;;;1.90;1.23;;;24.60;38.80;;;;;;4955687;28;45233;-81
2023/10/24 07:41:10;;;;;;;1.75;1.25;;;24.60;38.80;;;;;;4944121;28;46503;-81
2023/10/24 07:43:36;;;;;;;3.13;1.30;;;24.60;38.80;;;;;;4924089;28;45467;-80
2023/10/24 07:46:03;;;;;;;3.83;1.30;;;24.50;38.80;;;;;;4930149;28;45248;-81
2023/10/24 07:48:28;;;;;;;1.83;1.30;;;24.60;38.80;;;;;;4921951;28;44874;-81
2023/10/24 07:50:55;;;;;;;2.03;1.40;;;24.50;38.80;;;;;;4938767;28;46086;-80
2023/10/24 07:53:21;;;;;;;1.60;1.40;;;24.50;38.90;;;;;;4939436;28;45253;-81
2023/10/24 07:55:47;;;;;;;2.13;1.60;;;24.50;38.80;;;;;;4934338;28;45531;-80
2023/10/24 07:58:13;;;;;;;2.88;1.77;;;24.50;38.80;;;;;;4949957;28;46227;-81
2023/10/24 08:00:39;;;;;;;2.75;1.45;;;24.60;38.90;;;;;;4925083;28;45958;-81
2023/10/24 08:03:05;;;;;;;2.25;1.45;;;24.60;38.90;;;;;;4917687;28;44851;-81
2023/10/24 08:05:32;;;;;;;2.30;1.50;;;24.50;38.90;;;;;;4914968;28;45083;-81
2023/10/24 08:07:58;;;;;;;1.73;1.38;;;24.50;38.90;;;;;;4937359;28;44896;-81
2023/10/24 08:10:24;;;;;;;2.22;1.48;;;24.60;38.90;;;;;;4953758;28;45499;-80
2023/10/24 08:12:49;;;;;;;2.15;1.35;;;24.50;38.90;;;;;;4931451;28;45097;-81
2023/10/24 08:15:15;;;;;;;2.05;1.40;;;24.50;38.90;;;;;;4899417;28;45212;-81
2023/10/24 08:17:41;;;;;;;2.13;1.30;;;24.60;38.90;;;;;;4945637;28;44929;-81
2023/10/24 08:20:08;;;;;;;3.00;1.40;;;24.60;38.90;;;;;;4947347;28;46613;-80
2023/10/24 08:22:33;;;;;;;1.93;1.40;;;24.60;39.00;;;;;;4951417;28;45402;-80
2023/10/24 08:24:59;;;;;;;2.60;1.40;;;24.50;38.90;;;;;;4904716;28;45241;-81
2023/10/24 08:27:25;;;;;;;1.97;1.47;;;24.50;38.90;;;;;;4931597;28;45375;-82
2023/10/24 08:29:50;;;;;;;1.67;1.23;;;24.50;38.90;;;;;;4939363;28;47142;-81
2023/10/24 08:32:16;;;;;;;1.70;1.27;;;24.50;38.90;;;;;;4942743;28;45857;-81
2023/10/24 08:34:42;;;;;;;1.80;1.27;;;24.50;38.90;;;;;;4911828;28;44962;-81
2023/10/24 08:37:08;;;;;;;2.60;1.55;;;24.50;38.90;;;;;;4941735;28;45677;-81
2023/10/24 08:39:34;;;;;;;2.08;1.20;;;24.50;39.00;;;;;;4919036;28;47181;-81
2023/10/24 08:42:00;;;;;;;1.63;1.20;;;24.50;39.00;;;;;;4944945;28;45550;-81
2023/10/24 08:44:26;;;;;;;2.25;1.42;;;24.50;39.00;;;;;;4954547;28;45575;-81
2023/10/24 08:46:53;;;;;;;3.20;1.40;;;24.50;39.00;;;;;;4920380;28;45579;-82
2023/10/24 08:49:19;;;;;;;2.20;1.40;;;24.50;39.00;;;;;;4944814;28;46292;-81
2023/10/24 08:51:45;;;;;;;1.80;1.50;;;24.50;39.00;;;;;;4915767;28;45545;-80
2023/10/24 08:54:11;;;;;;;2.92;1.80;;;24.50;39.00;;;;;;4957098;28;45114;-81
2023/10/24 08:56:40;;;;;;;1.40;1.23;;;24.50;39.00;;;;;;4942939;28;45374;-81
2023/10/24 08:59:08;;;;;;;1.73;1.35;;;24.50;39.00;;;;;;4939596;28;47540;-81
2023/10/24 09:01:35;;;;;;;1.63;1.30;;;24.50;39.00;;;;;;4918981;28;45855;-81
2023/10/24 09:04:02;;;;;;;1.83;1.20;;;24.50;39.10;;;;;;4948945;28;45714;-81
2023/10/24 09:06:28;;;;;;;3.58;1.50;;;24.50;39.00;;;;;;4926632;28;45227;-81
2023/10/24 09:08:54;;;;;;;1.30;1.20;;;24.50;39.10;;;;;;4928457;28;45582;-80
2023/10/24 09:11:22;;;;;;;1.58;1.35;;;24.50;39.00;;;;;;4930056;28;45322;-81
2023/10/24 09:13:49;;;;;;;1.55;1.27;;;24.50;39.10;;;;;;4921153;28;45715;-81
2023/10/24 09:16:15;;;;;;;2.30;1.30;;;24.40;39.00;;;;;;4932501;28;45321;-80
2023/10/24 09:18:41;;;;;;;1.67;1.33;;;24.50;39.10;;;;;;4893084;28;47210;-81
2023/10/24 09:21:07;;;;;;;2.05;1.30;;;24.40;39.00;;;;;;4895817;28;45719;-80
2023/10/24 09:23:35;;;;;;;2.85;1.55;;;24.40;39.00;;;;;;4951476;28;45472;-81
2023/10/24 09:26:04;;;;;;;1.23;1.10;;;24.40;39.00;;;;;;4938840;28;45678;-81
2023/10/24 09:28:30;;;;;;;1.80;1.30;;;24.40;39.10;;;;;;4940539;28;44984;-82
2023/10/24 09:30:59;;;;;;;1.67;1.30;;;24.40;39.10;;;;;;4925374;28;45335;-81
2023/10/24 09:33:29;;;;;;;2.20;1.30;;;24.50;39.10;;;;;;4916380;28;45287;-81
2023/10/24 09:35:56;;;;;;;1.88;1.38;;;24.40;39.10;;;;;;4928358;28;45486;-81
2023/10/24 09:38:24;;;;;;;1.85;1.40;;;24.40;39.10;;;;;;4949371;28;46307;-81
2023/10/24 09:40:50;;;;;;;1.63;1.20;;;24.40;39.10;;;;;;4922130;28;45269;-81
2023/10/24 09:43:22;;;;;;;1.50;1.27;;;24.40;39.10;;;;;;4932359;28;45476;-81
2023/10/24 09:45:50;;;;;;;1.73;1.13;;;24.40;39.20;;;;;;4905342;28;45182;-81
2023/10/24 09:48:17;;;;;;;1.42;1.20;;;24.40;39.10;;;;;;4913920;28;46152;-80
2023/10/24 09:50:43;;;;;;;1.73;1.27;;;24.40;39.10;;;;;;4952329;28;45614;-81
2023/10/24 09:53:11;;;;;;;1.70;1.20;;;24.40;39.10;;;;;;4966843;28;44880;-81
2023/10/24 09:55:41;;;;;;;2.50;1.30;;;24.40;39.10;;;;;;4940765;28;46013;-81
2023/10/24 09:58:09;;;;;;;2.30;1.30;;;24.40;39.20;;;;;;4950740;28;45509;-81
2023/10/24 10:00:35;;;;;;;2.72;1.60;;;24.50;39.20;;;;;;4926876;28;45544;-80
2023/10/24 10:03:00;;;;;;;2.10;1.40;;;24.40;39.20;;;;;;4941176;28;45001;-80
2023/10/24 10:05:30;;;;;;;2.40;1.20;;;24.40;39.20;;;;;;4952092;28;45275;-80
2023/10/24 10:07:56;;;;;;;1.55;1.20;;;24.40;39.20;;;;;;4946131;28;46269;-80
2023/10/24 10:10:23;;;;;;;1.83;1.20;;;24.40;39.20;;;;;;4956570;28;45100;-81
2023/10/24 10:12:50;;;;;;;1.40;1.15;;;24.40;39.20;;;;;;4948914;28;45676;-80
2023/10/24 10:15:21;;;;;;;1.98;1.20;;;24.40;39.20;;;;;;4960277;28;45245;-81
2023/10/24 10:18:12;;;;;;;2.05;1.40;;;24.40;39.20;;;;;;4986857;28;45448;-81
2023/10/24 10:20:38;;;;;;;1.92;1.30;;;24.40;39.30;;;;;;4964140;28;44949;-81
2023/10/24 10:23:13;;;;;;;1.48;1.20;;;24.40;39.30;;;;;;4982699;28;45486;-81
2023/10/24 10:26:19;;;;;;;2.35;1.50;;;24.40;39.20;;;;;;4947988;28;45846;-81
2023/10/24 10:29:07;;;;;;;1.23;1.10;;;24.40;39.30;;;;;;4897251;28;45561;-80
2023/10/24 10:31:55;;;;;;;2.70;1.58;;;24.40;39.30;;;;;;4916433;28;45720;-80
2023/10/24 10:34:35;;;;;;;1.50;1.27;;;24.40;39.30;;;;;;4952417;28;44944;-81
2023/10/24 10:40:24;;;;;;;2.17;1.42;;;24.40;39.30;;;;;;4965122;28;46156;-81
2023/10/24 10:42:51;;;;;;;1.80;1.20;;;24.40;39.30;;;;;;4935934;28;45183;-80
2023/10/24 10:45:23;;;;;;;1.90;1.30;;;24.40;39.30;;;;;;4944726;28;45615;-81
2023/10/24 10:47:48;;;;;;;2.83;1.27;;;24.30;39.30;;;;;;4971374;28;45391;-81
2023/10/24 10:50:27;;;;;;;2.17;1.33;;;24.40;39.30;;;;;;4946533;28;46896;-80
2023/10/24 10:53:30;;;;;;;2.13;1.20;;;24.40;39.40;;;;;;4981006;28;45302;-81
2023/10/24 10:56:15;;;;;;;1.60;1.40;;;24.40;39.40;;;;;;4961205;28;44938;-81
2023/10/24 10:58:55;;;;;;;1.20;1.10;;;24.40;39.40;;;;;;4964463;28;45307;-81
2023/10/24 11:01:51;;;;;;;2.40;1.38;;;24.40;39.40;;;;;;4947373;28;45530;-81
2023/10/24 11:04:16;;;;;;;1.63;1.20;;;24.40;39.40;;;;;;4953772;28;46144;-80
2023/10/24 11:06:52;;;;;;;1.98;1.52;;;24.30;39.40;;;;;;4929456;28;45622;-81
2023/10/24 11:09:22;;;;;;;1.98;1.20;;;24.40;39.40;;;;;;4951599;28;45159;-81
2023/10/24 11:12:08;;;;;;;1.83;1.43;;;24.40;39.40;;;;;;4947063;28;47444;-81
2023/10/24 11:14:34;;;;;;;2.58;1.20;;;24.40;39.50;;;;;;4967113;28;46681;-80
2023/10/24 11:17:00;;;;;;;2.05;1.17;;;24.40;39.50;;;;;;4936982;28;45505;-80
2023/10/24 11:19:26;;;;;;;1.53;1.27;;;24.30;39.50;;;;;;4932410;28;45032;-80
2023/10/24 11:21:53;;;;;;;1.40;1.07;;;24.30;39.40;;;;;;4960010;28;46869;-81
2023/10/24 11:24:20;;;;;;;1.73;1.17;;;24.40;39.50;;;;;;4949316;28;45007;-81
2023/10/24 11:26:55;;;;;;;3.03;1.20;;;24.30;39.50;;;;;;4954410;28;45079;-80
2023/10/24 11:29:21;;;;;;;1.52;1.10;;;24.30;39.50;;;;;;4948421;28;45319;-80
2023/10/24 11:31:47;;;;;;;1.70;1.30;;;24.30;39.50;;;;;;4942950;28;46232;-81
2023/10/24 11:34:13;;;;;;;2.20;1.30;;;24.30;39.50;;;;;;4938571;28;45016;-81
2023/10/24 11:36:43;;;;;;;1.83;1.20;;;24.40;39.60;;;;;;4930791;28;45131;-81
2023/10/24 11:39:09;;;;;;;1.30;1.20;;;24.30;39.50;;;;;;4935910;28;45734;-81
2023/10/24 11:41:35;;;;;;;1.27;1.17;;;24.30;39.50;;;;;;4936152;28;46378;-80
2023/10/24 11:44:01;;;;;;;2.17;1.40;;;24.30;40.20;;;;;;4967299;28;45819;-81
2023/10/24 11:46:28;;;;;;;1.33;1.10;;;24.30;39.60;;;;;;4963386;28;45363;-81
2023/10/24 11:48:54;;;;;;;1.88;1.17;;;24.30;39.60;;;;;;4962041;28;45219;-80
2023/10/24 11:51:20;;;;;;;1.33;1.00;;;24.30;39.60;;;;;;4975727;28;45556;-81
2023/10/24 11:53:47;;;;;;;2.10;1.20;;;24.30;39.60;;;;;;4977249;28;45535;-82
2023/10/24 11:56:13;;;;;;;1.90;1.20;;;24.30;39.60;;;;;;4971451;28;45319;-81
2023/10/24 11:58:40;;;;;;;2.50;1.40;;;24.30;39.60;;;;;;4946859;28;45124;-81
2023/10/24 12:01:05;;;;;;;1.73;1.05;;;24.30;39.60;;;;;;4943584;28;46531;-81
2023/10/24 12:03:47;;;;;;;1.70;1.23;;;24.30;39.60;;;;;;4969717;28;44905;-81
2023/10/24 12:06:16;;;;;;;1.57;1.20;;;24.30;39.60;;;;;;4973709;28;45216;-81
2023/10/24 12:08:43;;;;;;;1.88;1.35;;;24.30;39.70;;;;;;4976801;28;45450;-81
2023/10/24 12:11:09;;;;;;;2.28;1.40;;;24.30;39.70;;;;;;4964252;28;46474;-81
2023/10/24 12:13:34;;;;;;;1.60;1.20;;;24.30;39.70;;;;;;4973447;28;45227;-80
2023/10/24 12:16:01;;;;;;;1.88;1.30;;;24.20;39.60;;;;;;4949900;28;45344;-81
2023/10/24 12:18:29;;;;;;;1.33;1.20;;;24.30;39.70;;;;;;4958250;28;44879;-81
2023/10/24 12:20:55;;;;;;;1.83;1.23;;;24.30;39.70;;;;;;4969316;28;45445;-81
2023/10/24 12:23:23;;;;;;;2.17;1.38;;;24.30;39.70;;;;;;4978910;28;45579;-81
2023/10/24 12:25:49;;;;;;;1.42;1.20;;;24.30;39.80;;;;;;4955304;28;44708;-81
2023/10/24 12:28:15;;;;;;;1.73;1.40;;;24.20;39.70;;;;;;4947704;28;45565;-81
2023/10/24 12:30:42;;;;;;;2.08;1.35;;;24.30;39.80;;;;;;4964106;28;45619;-81
2023/10/24 12:33:07;;;;;;;2.40;1.23;;;24.30;39.80;;;;;;4950190;28;45555;-80
2023/10/24 12:35:33;;;;;;;3.03;1.20;;;24.30;39.80;;;;;;4940254;28;45014;-82
2023/10/24 12:37:59;;;;;;;2.45;1.45;;;24.30;39.80;;;;;;4947046;28;44769;-80
2023/10/24 12:40:25;;;;;;;2.75;1.33;;;24.30;39.80;;;;;;4989430;28;47938;-81
2023/10/24 12:42:52;;;;;;;2.65;1.75;;;24.30;39.90;;;;;;4983600;28;45013;-81
2023/10/24 12:45:19;;;;;;;3.03;1.70;;;24.30;39.90;;;;;;4946787;28;44937;-81
2023/10/24 12:47:45;;;;;;;3.78;1.80;;;24.30;40.00;;;;;;4940140;28;45807;-80
2023/10/24 12:50:11;;;;;;;2.47;1.90;;;24.30;40.00;;;;;;4964812;28;45315;-80
2023/10/24 12:52:37;;;;;;;3.05;2.00;;;24.30;40.60;;;;;;4972016;28;45394;-81
2023/10/24 12:55:04;;;;;;;4.53;2.40;;;24.30;40.00;;;;;;4984019;28;45412;-81
2023/10/24 12:57:31;;;;;;;4.57;2.60;;;24.30;40.10;;;;;;4975953;28;45624;-81
2023/10/24 12:59:56;;;;;;;5.87;2.60;;;24.30;40.10;;;;;;4978210;28;47318;-81
2023/10/24 13:02:24;;;;;;;4.88;2.72;;;24.30;40.10;;;;;;4952723;28;44756;-84
2023/10/24 13:04:50;;;;;;;5.88;2.78;;;24.40;40.20;;;;;;4940881;28;46622;-82
2023/10/24 13:07:16;;;;;;;4.93;2.78;;;24.40;40.30;;;;;;4947804;28;45483;-82
2023/10/24 13:09:42;;;;;;;4.47;2.77;;;24.40;40.30;;;;;;4964619;28;45655;-82
2023/10/24 13:12:08;;;;;;;6.00;3.13;;;24.40;40.40;;;;;;4915200;28;45292;-82
2023/10/24 13:14:45;;;;;;;3.60;2.70;;;24.40;40.40;;;;;;4939066;28;45058;-85
2023/10/24 13:17:13;;;;;;;4.85;3.15;;;24.40;40.40;;;;;;4945160;28;45192;-81
2023/10/24 13:19:38;;;;;;;4.70;2.80;;;24.40;40.40;;;;;;4928479;28;46184;-80
2023/10/24 13:22:05;;;;;;;4.23;3.00;;;24.50;40.50;;;;;;4929602;28;45311;-81
2023/10/24 13:24:32;;;;;;;6.72;3.20;;;24.50;40.40;;;;;;4926763;28;45443;-81
2023/10/24 13:26:58;;;;;;;6.13;3.10;;;24.50;40.40;;;;;;4915345;28;45529;-81
2023/10/24 13:29:24;;;;;;;5.63;3.17;;;24.50;40.40;;;;;;4941759;28;46202;-81
2023/10/24 13:31:50;;;;;;;5.25;3.10;;;24.60;40.50;;;;;;4933147;28;45468;-81
2023/10/24 13:34:17;;;;;;;4.63;3.08;;;24.60;40.50;;;;;;4945721;28;45378;-82
2023/10/24 13:36:43;;;;;;;5.20;3.17;;;24.70;40.50;;;;;;4967026;28;45246;-80
2023/10/24 13:39:10;;;;;;;4.32;2.85;;;24.70;40.50;;;;;;4951165;28;45500;-81
2023/10/24 13:41:37;;;;;;;4.80;2.90;;;24.70;40.50;;;;;;4950226;28;45653;-82
2023/10/24 13:44:04;;;;;;;4.78;3.10;;;24.70;40.50;;;;;;4950626;28;45326;-81
2023/10/24 13:46:30;;;;;;;4.82;3.10;;;24.80;40.60;;;;;;4942944;28;46086;-81
2023/10/24 13:48:57;;;;;;;5.30;3.07;;;24.80;40.50;;;;;;4934116;28;46729;-81
2023/10/24 13:51:22;;;;;;;4.40;2.83;;;24.80;40.50;;;;;;4932471;28;45448;-81
2023/10/24 13:53:48;;;;;;;3.92;2.80;;;24.80;40.40;;;;;;4926173;28;45597;-81
2023/10/24 13:56:14;;;;;;;5.40;3.17;;;24.80;40.40;;;;;;4905971;28;45235;-81
2023/10/24 13:58:40;;;;;;;4.40;2.67;;;24.90;40.40;;;;;;4936823;28;46399;-80
2023/10/24 14:01:06;;;;;;;4.03;2.50;;;24.90;40.40;;;;;;4937465;28;45363;-81
2023/10/24 14:03:33;;;;;;;5.65;3.10;;;25.00;40.40;;;;;;4966798;28;45280;-81
2023/10/24 14:05:59;;;;;;;4.97;2.80;;;25.00;40.40;;;;;;4928349;28;45012;-81
2023/10/24 14:08:25;;;;;;;3.95;2.78;;;25.00;40.30;;;;;;4918422;28;45857;-81
2023/10/24 14:10:51;;;;;;;4.40;3.10;;;25.10;40.40;;;;;;4951269;28;45168;-82
2023/10/24 14:13:17;;;;;;;5.32;3.22;;;25.10;40.30;;;;;;4968519;28;45639;-82
2023/10/24 14:15:42;;;;;;;5.80;3.55;;;25.10;40.30;;;;;;4937759;28;45505;-80
2023/10/24 14:18:08;;;;;;;5.43;3.20;;;25.20;40.30;;;;;;4914213;28;46730;-82
2023/10/24 14:20:34;;;;;;;4.63;2.90;;;25.20;40.30;;;;;;4924429;28;45025;-81
2023/10/24 14:23:00;;;;;;;5.43;3.28;;;25.20;40.30;;;;;;4935692;28;44997;-81
2023/10/24 14:25:26;;;;;;;4.77;3.47;;;25.30;40.30;;;;;;4947427;28;45079;-82
2023/10/24 14:27:51;;;;;;;6.78;3.75;;;25.30;40.30;;;;;;4944012;28;46246;-82
2023/10/24 14:30:18;;;;;;;5.65;3.60;;;25.40;40.30;;;;;;4946988;28;44859;-81
2023/10/24 14:32:45;;;;;;;5.65;3.67;;;25.40;40.30;;;;;;4953155;28;45377;-81
2023/10/24 14:35:11;;;;;;;6.30;3.58;;;25.40;40.30;;;;;;4926532;28;45196;-81
2023/10/24 14:37:37;;;;;;;4.97;3.40;;;25.40;40.20;;;;;;4948371;28;47530;-82
2023/10/24 14:40:07;;;;;;;6.22;3.50;;;25.50;40.20;;;;;;4962234;28;45756;-82
2023/10/24 14:42:33;;;;;;;6.47;3.50;;;25.50;40.20;;;;;;4932180;28;45386;-86
2023/10/24 14:44:59;;;;;;;5.68;3.55;;;25.50;40.10;;;;;;4953410;28;45758;-83
2023/10/24 14:47:25;;;;;;;6.80;3.50;;;25.60;40.10;;;;;;4955340;28;45542;-82
2023/10/24 14:49:52;;;;;;;4.78;3.20;;;25.60;40.10;;;;;;4950091;28;45619;-82
2023/10/24 14:52:17;;;;;;;7.40;3.60;;;25.70;40.10;;;;;;4947737;28;45753;-82
2023/10/24 14:54:43;;;;;;;6.65;3.45;;;25.70;40.00;;;;;;4935566;28;45422;-82
2023/10/24 14:57:10;;;;;;;6.05;3.58;;;25.80;40.00;;;;;;4945990;28;46480;-83
2023/10/24 14:59:36;;;;;;;6.75;3.60;;;25.80;40.00;;;;;;4935539;28;46005;-84
2023/10/24 15:02:02;;;;;;;5.37;3.50;;;25.80;40.00;;;;;;4921755;28;45571;-82
2023/10/24 15:04:28;;;;;;;5.43;3.10;;;25.80;40.00;;;;;;4966578;28;45283;-82
2023/10/24 15:06:53;;;;;;;4.47;3.20;;;25.90;39.90;;;;;;4947545;28;46378;-82
2023/10/24 15:09:20;;;;;;;6.72;3.22;;;25.90;39.90;;;;;;4936541;28;45526;-82
2023/10/24 15:11:50;;;;;;;6.35;2.83;;;26.00;39.90;;;;;;4933755;28;45541;-82
2023/10/24 15:14:17;;;;;;;5.43;3.10;;;26.00;39.80;;;;;;4964213;28;45283;-83
2023/10/24 15:16:43;;;;;;;5.53;3.05;;;26.00;39.80;;;;;;4965931;28;46604;-80
2023/10/24 15:19:11;;;;;;;5.93;3.17;;;26.10;39.70;;;;;;4971194;28;45358;-80
2023/10/24 15:21:38;;;;;;;4.70;2.70;;;26.10;39.70;;;;;;4966680;28;45501;-80
2023/10/24 15:24:08;;;;;;;3.63;2.70;;;26.20;39.70;;;;;;4969953;28;44809;-80
2023/10/24 15:26:35;;;;;;;4.00;2.63;;;26.20;39.60;;;;;;4970169;28;45251;-80
2023/10/24 15:29:02;;;;;;;3.72;2.42;;;26.30;39.60;;;;;;4988958;28;45790;-80
2023/10/24 15:31:28;;;;;;;3.80;2.57;;;26.30;39.50;;;;;;4977017;28;45339;-79
2023/10/24 15:33:56;;;;;;;4.47;2.53;;;26.30;39.50;;;;;;4964593;28;45097;-80
2023/10/24 15:36:22;;;;;;;3.92;2.63;;;26.40;39.50;;;;;;4934318;28;47150;-81
2023/10/24 15:38:47;;;;;;;3.50;2.20;;;26.40;39.40;;;;;;4966058;28;44724;-80
2023/10/24 15:41:13;;;;;;;5.30;2.50;;;26.50;39.50;;;;;;4947894;28;44951;-79
2023/10/24 15:43:39;;;;;;;4.00;2.40;;;26.50;39.40;;;;;;4955231;28;45219;-80
2023/10/24 15:46:08;;;;;;;5.25;2.60;;;26.50;39.30;;;;;;4928277;28;46430;-80
2023/10/24 15:48:34;;;;;;;5.00;2.60;;;26.60;39.30;;;;;;4980532;28;45329;-81
2023/10/24 15:51:03;;;;;;;2.53;2.05;;;26.60;39.20;;;;;;4949543;28;45495;-79